createdAt,value
2023-03-26T00:02:51.189Z,7.50
2023-03-26T00:06:12.820Z,8.30
2023-03-26T00:09:16.952Z,9.50
2023-03-26T00:12:19.068Z,7.37
2023-03-26T00:15:21.052Z,8.13
2023-03-26T00:18:25.099Z,7.07
2023-03-26T00:21:29.457Z,7.00
2023-03-26T00:24:31.635Z,7.30
2023-03-26T00:27:34.370Z,8.05
2023-03-26T00:30:36.577Z,6.53
2023-03-26T00:33:40.901Z,8.10
2023-03-26T00:36:44.049Z,8.25
2023-03-26T00:39:49.190Z,11.13
2023-03-26T00:42:51.276Z,11.23
2023-03-26T00:45:55.442Z,9.25
2023-03-26T00:48:59.096Z,8.25
2023-03-26T00:52:03.141Z,8.68
2023-03-26T00:55:05.520Z,8.53
2023-03-26T00:58:12.910Z,7.50
2023-03-26T01:01:19.166Z,8.05
2023-03-26T01:04:31.931Z,6.20
2023-03-26T01:07:35.330Z,5.62
2023-03-26T01:10:40.167Z,6.40
2023-03-26T01:13:49.612Z,5.53
2023-03-26T01:16:55.142Z,6.32
2023-03-26T01:20:20.132Z,5.53
2023-03-26T01:23:24.782Z,6.28
2023-03-26T01:26:38.918Z,6.33
2023-03-26T01:29:44.266Z,5.15
2023-03-26T01:32:58.202Z,5.50
2023-03-26T01:36:32.542Z,5.57
2023-03-26T01:39:53.452Z,5.60
2023-03-26T01:43:04.983Z,5.37
2023-03-26T01:46:09.915Z,5.62
2023-03-26T01:49:13.633Z,5.28
2023-03-26T01:52:20.101Z,5.78
2023-03-26T01:55:28.398Z,5.62
2023-03-26T01:58:44.674Z,5.90
2023-03-26T02:02:14.425Z,5.55
2023-03-26T02:05:31.789Z,5.12
2023-03-26T02:08:39.817Z,5.90
2023-03-26T02:11:43.567Z,5.90
2023-03-26T02:14:46.176Z,6.10
2023-03-26T02:17:49.741Z,6.22
2023-03-26T02:20:55.881Z,6.20
2023-03-26T02:24:03.030Z,5.45
2023-03-26T02:27:07.976Z,5.43
2023-03-26T02:30:15.120Z,5.43
2023-03-26T02:33:17.442Z,5.95
2023-03-26T02:36:22.170Z,6.05
2023-03-26T02:39:25.469Z,5.87
2023-03-26T02:42:27.955Z,6.95
2023-03-26T02:45:30.035Z,6.10
2023-03-26T02:48:34.777Z,7.35
2023-03-26T02:51:37.581Z,4.70
2023-03-26T02:54:39.620Z,6.75
2023-03-26T02:57:41.601Z,8.27
2023-03-26T03:00:46.949Z,7.53
2023-03-26T03:03:49.160Z,6.37
2023-03-26T03:06:53.172Z,6.68
2023-03-26T03:09:55.394Z,6.68
2023-03-26T03:12:57.548Z,7.85
2023-03-26T03:15:59.613Z,7.07
2023-03-26T03:19:01.981Z,5.53
2023-03-26T03:22:04.172Z,6.60
2023-03-26T03:25:09.218Z,6.30
2023-03-26T03:28:13.961Z,4.97
2023-03-26T03:31:17.626Z,6.23
2023-03-26T03:34:19.834Z,6.30
2023-03-26T03:37:22.030Z,6.10
2023-03-26T03:40:24.512Z,5.50
2023-03-26T03:43:27.654Z,5.10
2023-03-26T03:46:29.941Z,4.97
2023-03-26T03:49:32.169Z,5.32
2023-03-26T03:52:34.198Z,5.70
2023-03-26T03:55:38.394Z,5.10
2023-03-26T03:58:41.182Z,5.35
2023-03-26T04:01:46.853Z,4.80
2023-03-26T04:04:50.406Z,5.10
2023-03-26T04:07:52.570Z,5.00
2023-03-26T04:10:54.643Z,3.12
2023-03-26T04:13:56.796Z,3.55
2023-03-26T04:16:58.905Z,3.60
2023-03-26T04:20:14.606Z,3.28
2023-03-26T04:23:18.647Z,4.45
2023-03-26T04:26:20.838Z,4.32
2023-03-26T04:29:25.841Z,3.95
2023-03-26T04:32:30.576Z,3.53
2023-03-26T04:35:37.124Z,3.83
2023-03-26T04:38:45.716Z,3.87
2023-03-26T04:41:48.713Z,3.00
2023-03-26T04:44:51.039Z,3.95
2023-03-26T04:47:53.157Z,4.23
2023-03-26T04:50:56.603Z,4.95
2023-03-26T04:54:00.277Z,4.12
2023-03-26T04:57:08.604Z,4.22
2023-03-26T05:00:16.588Z,4.37
2023-03-26T05:03:21.188Z,4.13
2023-03-26T05:06:23.444Z,4.57
2023-03-26T05:09:29.323Z,5.03
2023-03-26T05:12:31.409Z,4.55
2023-03-26T05:15:33.456Z,4.25
2023-03-26T05:18:35.514Z,5.00
2023-03-26T05:21:37.999Z,5.10
2023-03-26T05:24:40.050Z,4.43
2023-03-26T05:27:42.143Z,4.60
2023-03-26T05:30:44.776Z,4.75
2023-03-26T05:33:48.693Z,4.40
2023-03-26T05:36:50.919Z,3.78
2023-03-26T05:39:55.024Z,4.50
2023-03-26T05:42:57.193Z,4.62
2023-03-26T05:45:59.409Z,4.35
2023-03-26T05:49:01.524Z,3.90
2023-03-26T05:52:04.019Z,3.83
2023-03-26T05:55:06.736Z,4.30
2023-03-26T05:58:08.820Z,3.50
2023-03-26T06:01:17.012Z,3.95
2023-03-26T06:04:19.608Z,4.83
2023-03-26T06:07:21.844Z,4.22
2023-03-26T06:10:24.874Z,5.07
2023-03-26T06:13:27.254Z,3.62
2023-03-26T06:16:29.444Z,4.28
2023-03-26T06:19:31.758Z,4.27
2023-03-26T06:22:33.751Z,4.07
2023-03-26T06:25:37.588Z,4.45
2023-03-26T06:28:39.745Z,4.57
2023-03-26T06:31:42.263Z,4.00
2023-03-26T06:34:44.372Z,3.53
2023-03-26T06:37:46.644Z,4.15
2023-03-26T06:40:50.497Z,4.55
2023-03-26T06:43:53.023Z,3.70
2023-03-26T06:46:55.081Z,3.55
2023-03-26T06:49:57.094Z,3.90
2023-03-26T06:52:59.275Z,3.80
2023-03-26T06:56:02.913Z,3.62
2023-03-26T06:59:05.157Z,3.60
2023-03-26T07:02:07.714Z,4.40
2023-03-26T07:05:10.025Z,3.70
2023-03-26T07:08:12.115Z,4.40
2023-03-26T07:11:14.458Z,3.62
2023-03-26T07:14:16.554Z,3.50
2023-03-26T07:17:18.870Z,4.37
2023-03-26T07:20:21.656Z,3.23
2023-03-26T07:23:24.135Z,2.33
2023-03-26T07:26:41.420Z,3.50
2023-03-26T07:29:59.475Z,3.42
2023-03-26T07:33:10.084Z,2.22
2023-03-26T07:36:28.833Z,2.77
2023-03-26T07:39:52.485Z,2.30
2023-03-26T07:43:29.107Z,3.00
2023-03-26T07:46:35.061Z,2.28
2023-03-26T07:49:38.364Z,2.70
2023-03-26T07:52:41.004Z,2.63
2023-03-26T07:55:58.365Z,2.55
2023-03-26T07:59:18.488Z,2.70
2023-03-26T08:02:45.518Z,3.03
2023-03-26T08:06:02.018Z,2.08
2023-03-26T08:09:32.745Z,1.80
2023-03-26T08:12:58.222Z,2.35
2023-03-26T08:16:35.754Z,2.12
2023-03-26T08:19:49.387Z,2.17
2023-03-26T08:23:00.627Z,2.28
2023-03-26T08:26:31.705Z,1.90
2023-03-26T08:29:36.776Z,1.50
2023-03-26T08:32:39.160Z,1.20
2023-03-26T08:35:42.722Z,1.02
2023-03-26T08:38:46.834Z,1.60
2023-03-26T08:42:17.022Z,1.50
2023-03-26T08:45:37.444Z,1.50
2023-03-26T08:49:33.407Z,1.20
2023-03-26T08:53:09.580Z,1.02
2023-03-26T08:56:35.177Z,1.33
2023-03-26T08:59:46.318Z,1.30
2023-03-26T09:03:20.449Z,1.00
2023-03-26T09:06:41.238Z,1.40
2023-03-26T09:09:52.500Z,0.90
2023-03-26T09:13:26.628Z,1.08
2023-03-26T09:16:34.769Z,0.73
2023-03-26T09:20:00.040Z,0.95
2023-03-26T09:23:07.902Z,0.90
2023-03-26T09:26:15.945Z,1.20
2023-03-26T09:29:23.855Z,1.12
2023-03-26T09:32:46.737Z,1.10
2023-03-26T09:36:18.668Z,1.02
2023-03-26T09:39:30.107Z,0.90
2023-03-26T09:42:45.876Z,1.17
2023-03-26T09:45:59.823Z,1.27
2023-03-26T09:49:35.981Z,1.00
2023-03-26T09:53:27.467Z,1.33
2023-03-26T09:56:51.478Z,1.20
2023-03-26T10:00:22.972Z,1.35
2023-03-26T10:03:38.480Z,1.60
2023-03-26T10:06:52.470Z,1.40
2023-03-26T10:10:02.672Z,1.33
2023-03-26T10:13:26.337Z,1.50
2023-03-26T10:16:50.178Z,1.42
2023-03-26T10:20:22.456Z,1.80
2023-03-26T10:23:57.150Z,1.40
2023-03-26T10:27:22.545Z,1.30
2023-03-26T10:30:38.316Z,1.42
2023-03-26T10:33:49.940Z,1.37
2023-03-26T10:37:03.966Z,1.37
2023-03-26T10:40:18.208Z,0.93
2023-03-26T10:44:08.024Z,1.17
2023-03-26T10:47:29.255Z,1.55
2023-03-26T10:51:31.065Z,1.30
2023-03-26T10:54:55.269Z,2.00
2023-03-26T10:58:10.801Z,1.80
2023-03-26T11:01:36.199Z,1.75
2023-03-26T11:05:00.469Z,2.00
2023-03-26T11:08:10.001Z,1.77
2023-03-26T11:11:18.016Z,2.03
2023-03-26T11:14:41.447Z,1.53
2023-03-26T11:18:01.805Z,1.75
2023-03-26T11:21:32.392Z,2.05
2023-03-26T11:24:52.604Z,1.08
2023-03-26T11:28:11.251Z,1.30
2023-03-26T11:31:27.352Z,1.43
2023-03-26T11:34:43.109Z,1.48
2023-03-26T11:37:50.741Z,1.42
2023-03-26T11:40:57.823Z,1.48
2023-03-26T11:44:22.065Z,1.40
2023-03-26T11:47:31.260Z,1.20
2023-03-26T11:50:38.857Z,1.30
2023-03-26T11:53:46.938Z,1.08
2023-03-26T11:57:04.862Z,0.80
2023-03-26T12:00:21.587Z,0.98
2023-03-26T12:03:23.962Z,0.80
2023-03-26T12:06:27.604Z,1.27
2023-03-26T12:09:29.900Z,1.12
2023-03-26T12:12:41.829Z,0.75
2023-03-26T12:15:44.349Z,0.93
2023-03-26T12:18:58.799Z,0.90
2023-03-26T12:22:01.231Z,0.93
2023-03-26T12:25:20.864Z,0.88
2023-03-26T12:28:24.033Z,1.10
2023-03-26T12:31:26.709Z,1.10
2023-03-26T12:34:35.172Z,1.20
2023-03-26T12:37:43.319Z,0.70
2023-03-26T12:40:45.663Z,1.42
2023-03-26T12:44:54.132Z,1.10
2023-03-26T12:47:58.041Z,1.27
2023-03-26T12:51:04.033Z,1.17
2023-03-26T12:54:29.061Z,1.20
2023-03-26T12:57:41.340Z,1.20
2023-03-26T13:00:49.983Z,1.15
2023-03-26T13:04:14.371Z,1.55
2023-03-26T13:07:31.555Z,1.00
2023-03-26T13:10:44.818Z,1.30
2023-03-26T13:13:56.906Z,1.48
2023-03-26T13:17:13.442Z,1.08
2023-03-26T13:20:45.782Z,1.10
2023-03-26T13:24:16.463Z,1.47
2023-03-26T13:27:37.799Z,1.27
2023-03-26T13:31:26.655Z,1.50
2023-03-26T13:34:53.075Z,1.35
2023-03-26T13:38:04.778Z,1.80
2023-03-26T13:41:16.256Z,1.40
2023-03-26T13:44:48.869Z,2.25
2023-03-26T13:47:55.491Z,1.60
2023-03-26T13:51:09.936Z,1.40
2023-03-26T13:54:26.359Z,2.35
2023-03-26T13:58:11.947Z,1.40
2023-03-26T14:01:18.140Z,1.60
2023-03-26T14:04:26.387Z,1.52
2023-03-26T14:07:42.425Z,1.48
2023-03-26T14:10:54.136Z,2.08
2023-03-26T14:14:04.344Z,1.73
2023-03-26T14:17:21.420Z,1.52
2023-03-26T14:20:38.128Z,1.60
2023-03-26T14:23:58.631Z,1.75
2023-03-26T14:27:24.565Z,1.75
2023-03-26T14:30:50.047Z,2.27
2023-03-26T14:34:10.850Z,1.90
2023-03-26T14:37:35.704Z,1.90
2023-03-26T14:44:49.269Z,1.73
2023-03-26T14:48:34.108Z,1.83
2023-03-26T14:51:59.556Z,1.92
2023-03-26T14:59:30.039Z,2.05
2023-03-26T15:03:09.900Z,1.98
2023-03-26T15:06:14.411Z,1.83
2023-03-26T15:09:38.698Z,1.77
2023-03-26T15:13:14.281Z,1.83
2023-03-26T15:17:04.202Z,2.00
2023-03-26T15:20:32.135Z,2.03
2023-03-26T15:23:53.176Z,1.93
2023-03-26T15:27:02.201Z,1.45
2023-03-26T15:30:33.269Z,2.12
2023-03-26T15:33:58.700Z,2.10
2023-03-26T15:37:48.762Z,1.98
2023-03-26T15:41:29.217Z,2.00
2023-03-26T15:44:53.992Z,1.80
2023-03-26T15:48:12.223Z,1.98
2023-03-26T15:51:20.421Z,2.30
2023-03-26T15:54:30.480Z,1.85
2023-03-26T15:57:41.764Z,1.90
2023-03-26T16:05:03.546Z,2.00
2023-03-26T16:08:27.369Z,1.90
2023-03-26T16:15:20.592Z,1.90
2023-03-26T16:18:30.642Z,2.10
2023-03-26T16:22:15.218Z,7.75
2023-03-26T16:25:27.845Z,2.20
2023-03-26T16:28:34.676Z,1.75
2023-03-26T16:31:39.377Z,2.13
2023-03-26T16:34:58.261Z,2.00
2023-03-26T16:38:25.014Z,2.33
2023-03-26T16:41:29.653Z,2.12
2023-03-26T16:45:04.363Z,2.20
2023-03-26T16:48:44.736Z,2.17
2023-03-26T16:51:50.068Z,2.20
2023-03-26T16:55:05.537Z,2.10
2023-03-26T16:58:17.785Z,2.10
2023-03-26T17:01:56.323Z,2.65
2023-03-26T17:05:18.433Z,2.60
2023-03-26T17:08:38.392Z,2.50
2023-03-26T17:11:59.004Z,2.50
2023-03-26T17:19:20.340Z,2.83
2023-03-26T17:22:42.634Z,2.30
2023-03-26T17:26:04.454Z,3.08
2023-03-26T17:29:30.837Z,2.60
2023-03-26T17:33:04.492Z,2.90
2023-03-26T17:36:13.247Z,3.28
2023-03-26T17:39:39.924Z,3.33
2023-03-26T17:43:03.641Z,3.30
2023-03-26T17:46:41.936Z,3.37
2023-03-26T17:49:47.067Z,3.60
2023-03-26T17:53:06.786Z,3.50
2023-03-26T17:56:20.079Z,3.30
2023-03-26T17:59:27.484Z,5.78
2023-03-26T18:02:42.874Z,9.05
2023-03-26T18:05:48.526Z,3.37
2023-03-26T18:09:17.557Z,2.70
2023-03-26T18:13:02.672Z,3.10
2023-03-26T18:16:28.153Z,3.60
2023-03-26T18:19:48.043Z,2.45
2023-03-26T18:23:09.235Z,2.92
2023-03-26T18:26:20.481Z,3.10
2023-03-26T18:29:29.333Z,2.77
2023-03-26T18:32:34.234Z,3.05
2023-03-26T18:35:47.856Z,2.75
2023-03-26T18:47:31.750Z,8.73
2023-03-26T18:56:42.697Z,6.83
2023-03-26T19:26:49.428Z,8.80
2023-03-26T19:29:53.971Z,8.50
2023-03-26T19:33:12.562Z,7.45
2023-03-26T19:36:23.918Z,7.00
2023-03-26T19:39:43.342Z,6.62
2023-03-26T19:42:46.641Z,6.82
2023-03-26T19:46:00.416Z,5.73
2023-03-26T19:49:32.896Z,5.10
2023-03-26T19:52:39.098Z,4.60
2023-03-26T19:55:43.021Z,4.65
2023-03-26T19:58:46.477Z,3.47
2023-03-26T20:02:47.017Z,2.17
2023-03-26T20:05:50.346Z,2.65
2023-03-26T20:08:54.477Z,2.67
2023-03-26T20:12:00.488Z,2.00
2023-03-26T20:15:19.585Z,1.58
2023-03-26T20:18:23.059Z,1.60
2023-03-26T20:21:26.955Z,1.50
2023-03-26T20:29:24.332Z,1.42
2023-03-26T20:36:06.933Z,1.63
2023-03-26T20:39:10.278Z,1.75
2023-03-26T20:42:16.003Z,1.52
2023-03-26T20:45:21.989Z,0.88
2023-03-26T20:48:40.061Z,1.27
2023-03-26T20:51:55.752Z,2.00
2023-03-26T20:55:01.136Z,1.85
2023-03-26T20:58:04.206Z,1.62
2023-03-26T21:01:07.079Z,1.73
2023-03-26T21:04:09.498Z,2.15
2023-03-26T21:07:18.081Z,1.53
2023-03-26T21:10:26.504Z,1.00
2023-03-26T21:13:40.892Z,1.73
2023-03-26T21:16:43.507Z,2.05
2023-03-26T21:19:46.866Z,2.05
2023-03-26T21:22:49.275Z,1.60
2023-03-26T21:26:01.465Z,1.95
2023-03-26T21:29:03.912Z,2.20
2023-03-26T21:32:07.003Z,2.33
2023-03-26T21:35:10.165Z,2.60
2023-03-26T21:42:29.573Z,2.22
2023-03-26T21:45:32.262Z,2.78
2023-03-26T21:48:34.983Z,3.10
2023-03-26T21:51:43.114Z,2.12
2023-03-26T21:58:20.768Z,3.30
2023-03-26T22:01:38.311Z,3.05
2023-03-26T22:08:42.876Z,2.25
2023-03-26T22:11:45.064Z,2.40
2023-03-26T22:14:47.586Z,2.45
2023-03-26T22:17:54.187Z,2.17
2023-03-26T22:20:59.293Z,1.80
2023-03-26T22:24:04.005Z,1.77
2023-03-26T22:27:57.601Z,1.80
2023-03-26T22:31:00.008Z,1.92
2023-03-26T22:34:02.510Z,2.17
2023-03-26T22:37:05.741Z,2.10
2023-03-26T22:40:08.961Z,2.62
2023-03-26T22:43:11.545Z,2.30
2023-03-26T22:46:14.438Z,2.60
2023-03-26T22:49:17.081Z,2.40
2023-03-26T22:52:22.189Z,2.58
2023-03-26T22:59:40.177Z,1.77
2023-03-26T23:02:46.706Z,2.30
2023-03-26T23:05:59.167Z,2.08
2023-03-26T23:09:09.199Z,2.30
2023-03-26T23:23:33.416Z,2.72
2023-03-26T23:26:49.660Z,2.08
2023-03-26T23:29:53.615Z,2.20
2023-03-26T23:32:57.494Z,2.30
2023-03-26T23:36:00.838Z,2.03
2023-03-26T23:39:33.892Z,2.35
2023-03-26T23:42:37.727Z,1.58
2023-03-26T23:52:37.798Z,1.15
2023-03-26T23:55:51.502Z,0.75
2023-03-26T23:59:00.731Z,0.88
